sensor_id;sensor_type;location;lat;lon;timestamp;temperature;humidity
70244;DHT22;57634;51.136;17.024;2023-08-12T00:00:04;18.80;61.60
70244;DHT22;57634;51.136;17.024;2023-08-12T00:03:17;18.80;61.90
70244;DHT22;57634;51.136;17.024;2023-08-12T00:06:18;18.80;61.90
70244;DHT22;57634;51.136;17.024;2023-08-12T00:09:20;18.80;61.90
70244;DHT22;57634;51.136;17.024;2023-08-12T00:12:21;18.80;62.00
70244;DHT22;57634;51.136;17.024;2023-08-12T00:15:22;18.80;62.20
70244;DHT22;57634;51.136;17.024;2023-08-12T00:18:24;18.80;62.20
70244;DHT22;57634;51.136;17.024;2023-08-12T00:21:26;18.80;62.40
70244;DHT22;57634;51.136;17.024;2023-08-12T00:24:27;18.80;62.50
70244;DHT22;57634;51.136;17.024;2023-08-12T00:27:29;18.80;62.60
70244;DHT22;57634;51.136;17.024;2023-08-12T00:30:58;18.60;62.90
70244;DHT22;57634;51.136;17.024;2023-08-12T00:33:59;18.50;63.50
70244;DHT22;57634;51.136;17.024;2023-08-12T00:37:01;18.40;64.10
70244;DHT22;57634;51.136;17.024;2023-08-12T00:40:04;18.30;64.70
70244;DHT22;57634;51.136;17.024;2023-08-12T00:43:07;18.10;65.30
70244;DHT22;57634;51.136;17.024;2023-08-12T00:46:11;18.00;65.70
70244;DHT22;57634;51.136;17.024;2023-08-12T00:49:13;17.90;66.20
70244;DHT22;57634;51.136;17.024;2023-08-12T00:52:15;17.80;66.60
70244;DHT22;57634;51.136;17.024;2023-08-12T00:55:18;17.70;67.00
70244;DHT22;57634;51.136;17.024;2023-08-12T00:58:19;17.60;67.40
70244;DHT22;57634;51.136;17.024;2023-08-12T01:01:21;17.50;67.70
70244;DHT22;57634;51.136;17.024;2023-08-12T01:04:23;17.40;68.00
70244;DHT22;57634;51.136;17.024;2023-08-12T01:07:52;17.40;68.30
70244;DHT22;57634;51.136;17.024;2023-08-12T01:10:59;17.30;68.80
70244;DHT22;57634;51.136;17.024;2023-08-12T01:14:10;17.20;69.00
70244;DHT22;57634;51.136;17.024;2023-08-12T01:17:14;17.20;69.10
70244;DHT22;57634;51.136;17.024;2023-08-12T01:20:16;17.20;69.30
70244;DHT22;57634;51.136;17.024;2023-08-12T01:23:19;17.20;69.40
70244;DHT22;57634;51.136;17.024;2023-08-12T01:26:21;17.20;69.40
70244;DHT22;57634;51.136;17.024;2023-08-12T01:29:22;17.20;69.40
70244;DHT22;57634;51.136;17.024;2023-08-12T01:32:34;17.20;69.40
70244;DHT22;57634;51.136;17.024;2023-08-12T01:39:15;17.10;69.80
70244;DHT22;57634;51.136;17.024;2023-08-12T01:42:20;17.00;69.90
70244;DHT22;57634;51.136;17.024;2023-08-12T01:45:22;17.00;70.20
70244;DHT22;57634;51.136;17.024;2023-08-12T01:48:24;17.00;70.30
70244;DHT22;57634;51.136;17.024;2023-08-12T01:51:25;17.00;70.40
70244;DHT22;57634;51.136;17.024;2023-08-12T01:54:27;17.00;70.40
70244;DHT22;57634;51.136;17.024;2023-08-12T01:57:35;17.00;70.40
70244;DHT22;57634;51.136;17.024;2023-08-12T02:00:37;16.90;70.30
70244;DHT22;57634;51.136;17.024;2023-08-12T02:04:05;16.90;70.40
70244;DHT22;57634;51.136;17.024;2023-08-12T02:07:06;16.90;70.60
70244;DHT22;57634;51.136;17.024;2023-08-12T02:10:08;16.80;70.70
70244;DHT22;57634;51.136;17.024;2023-08-12T02:13:09;16.80;70.90
70244;DHT22;57634;51.136;17.024;2023-08-12T02:16:11;16.80;71.10
70244;DHT22;57634;51.136;17.024;2023-08-12T02:19:12;16.80;71.20
70244;DHT22;57634;51.136;17.024;2023-08-12T02:22:14;16.70;71.30
70244;DHT22;57634;51.136;17.024;2023-08-12T02:25:15;16.70;71.40
70244;DHT22;57634;51.136;17.024;2023-08-12T02:28:17;16.60;71.40
70244;DHT22;57634;51.136;17.024;2023-08-12T02:31:18;16.60;71.50
70244;DHT22;57634;51.136;17.024;2023-08-12T02:34:19;16.70;71.50
70244;DHT22;57634;51.136;17.024;2023-08-12T02:37:21;16.60;71.50
70244;DHT22;57634;51.136;17.024;2023-08-12T02:40:23;16.60;71.60
70244;DHT22;57634;51.136;17.024;2023-08-12T02:43:24;16.60;71.70
70244;DHT22;57634;51.136;17.024;2023-08-12T02:46:54;16.60;71.80
70244;DHT22;57634;51.136;17.024;2023-08-12T02:49:55;16.50;72.00
70244;DHT22;57634;51.136;17.024;2023-08-12T02:52:57;16.50;72.10
70244;DHT22;57634;51.136;17.024;2023-08-12T02:55:58;16.50;72.30
70244;DHT22;57634;51.136;17.024;2023-08-12T02:59:00;16.50;72.40
70244;DHT22;57634;51.136;17.024;2023-08-12T03:02:01;16.40;72.50
70244;DHT22;57634;51.136;17.024;2023-08-12T03:05:04;16.30;72.60
70244;DHT22;57634;51.136;17.024;2023-08-12T03:08:05;16.30;72.70
70244;DHT22;57634;51.136;17.024;2023-08-12T03:11:07;16.30;72.80
70244;DHT22;57634;51.136;17.024;2023-08-12T03:14:08;16.30;72.90
70244;DHT22;57634;51.136;17.024;2023-08-12T03:17:10;16.30;72.90
70244;DHT22;57634;51.136;17.024;2023-08-12T03:20:12;16.30;72.80
70244;DHT22;57634;51.136;17.024;2023-08-12T03:23:14;16.30;72.80
70244;DHT22;57634;51.136;17.024;2023-08-12T03:26:16;16.30;72.80
70244;DHT22;57634;51.136;17.024;2023-08-12T03:29:43;16.30;72.70
70244;DHT22;57634;51.136;17.024;2023-08-12T03:32:45;16.30;72.70
70244;DHT22;57634;51.136;17.024;2023-08-12T03:35:47;16.40;72.70
70244;DHT22;57634;51.136;17.024;2023-08-12T03:38:49;16.40;72.70
70244;DHT22;57634;51.136;17.024;2023-08-12T03:41:50;16.40;72.60
70244;DHT22;57634;51.136;17.024;2023-08-12T03:44:52;16.50;72.60
70244;DHT22;57634;51.136;17.024;2023-08-12T03:47:54;16.50;72.50
70244;DHT22;57634;51.136;17.024;2023-08-12T03:50:55;16.50;72.40
70244;DHT22;57634;51.136;17.024;2023-08-12T03:53:58;16.60;72.50
70244;DHT22;57634;51.136;17.024;2023-08-12T03:57:03;16.60;72.40
70244;DHT22;57634;51.136;17.024;2023-08-12T04:00:05;16.60;72.30
70244;DHT22;57634;51.136;17.024;2023-08-12T04:03:09;16.60;72.20
70244;DHT22;57634;51.136;17.024;2023-08-12T04:06:38;16.70;72.20
70244;DHT22;57634;51.136;17.024;2023-08-12T04:09:39;16.80;72.00
70244;DHT22;57634;51.136;17.024;2023-08-12T04:12:41;16.80;71.70
70244;DHT22;57634;51.136;17.024;2023-08-12T04:15:49;16.90;71.60
70244;DHT22;57634;51.136;17.024;2023-08-12T04:18:51;17.10;71.30
70244;DHT22;57634;51.136;17.024;2023-08-12T04:21:52;17.10;70.80
70244;DHT22;57634;51.136;17.024;2023-08-12T04:24:54;17.20;70.60
70244;DHT22;57634;51.136;17.024;2023-08-12T04:27:55;17.30;70.50
70244;DHT22;57634;51.136;17.024;2023-08-12T04:30:57;17.40;70.30
70244;DHT22;57634;51.136;17.024;2023-08-12T04:33:58;17.60;70.10
70244;DHT22;57634;51.136;17.024;2023-08-12T04:36:59;17.90;69.90
70244;DHT22;57634;51.136;17.024;2023-08-12T04:40:02;18.20;69.20
70244;DHT22;57634;51.136;17.024;2023-08-12T04:43:33;18.70;68.00
70244;DHT22;57634;51.136;17.024;2023-08-12T04:46:35;19.20;67.00
70244;DHT22;57634;51.136;17.024;2023-08-12T04:49:36;19.70;65.50
70244;DHT22;57634;51.136;17.024;2023-08-12T04:52:37;20.10;64.10
70244;DHT22;57634;51.136;17.024;2023-08-12T04:55:39;20.30;62.70
70244;DHT22;57634;51.136;17.024;2023-08-12T04:58:40;20.60;62.30
70244;DHT22;57634;51.136;17.024;2023-08-12T05:01:42;21.20;61.30
70244;DHT22;57634;51.136;17.024;2023-08-12T05:04:48;22.00;60.10
70244;DHT22;57634;51.136;17.024;2023-08-12T05:07:49;23.00;58.30
70244;DHT22;57634;51.136;17.024;2023-08-12T05:10:50;24.20;55.60
70244;DHT22;57634;51.136;17.024;2023-08-12T05:13:52;25.50;52.60
70244;DHT22;57634;51.136;17.024;2023-08-12T05:16:53;26.80;50.00
70244;DHT22;57634;51.136;17.024;2023-08-12T05:19:58;28.30;47.60
70244;DHT22;57634;51.136;17.024;2023-08-12T05:23:25;29.60;44.00
70244;DHT22;57634;51.136;17.024;2023-08-12T05:26:27;30.80;40.10
70244;DHT22;57634;51.136;17.024;2023-08-12T05:29:29;31.60;37.70
70244;DHT22;57634;51.136;17.024;2023-08-12T05:32:30;32.40;36.40
70244;DHT22;57634;51.136;17.024;2023-08-12T05:35:35;33.10;34.20
70244;DHT22;57634;51.136;17.024;2023-08-12T05:38:37;33.70;33.40
70244;DHT22;57634;51.136;17.024;2023-08-12T05:41:39;33.90;31.80
70244;DHT22;57634;51.136;17.024;2023-08-12T05:44:41;33.80;31.70
70244;DHT22;57634;51.136;17.024;2023-08-12T05:47:43;34.20;31.50
70244;DHT22;57634;51.136;17.024;2023-08-12T05:50:44;35.20;30.90
70244;DHT22;57634;51.136;17.024;2023-08-12T05:53:46;36.40;29.60
70244;DHT22;57634;51.136;17.024;2023-08-12T05:56:50;37.50;28.30
70244;DHT22;57634;51.136;17.024;2023-08-12T06:00:18;38.10;27.10
70244;DHT22;57634;51.136;17.024;2023-08-12T06:03:20;37.60;26.20
70244;DHT22;57634;51.136;17.024;2023-08-12T06:06:21;37.00;26.60
70244;DHT22;57634;51.136;17.024;2023-08-12T06:09:23;36.80;26.60
70244;DHT22;57634;51.136;17.024;2023-08-12T06:12:25;36.70;26.60
70244;DHT22;57634;51.136;17.024;2023-08-12T06:15:27;37.10;26.30
70244;DHT22;57634;51.136;17.024;2023-08-12T06:18:28;37.20;26.00
70244;DHT22;57634;51.136;17.024;2023-08-12T06:21:30;36.80;25.90
70244;DHT22;57634;51.136;17.024;2023-08-12T06:24:37;36.70;26.60
70244;DHT22;57634;51.136;17.024;2023-08-12T06:27:38;37.50;26.00
70244;DHT22;57634;51.136;17.024;2023-08-12T06:30:39;38.50;25.50
70244;DHT22;57634;51.136;17.024;2023-08-12T06:33:41;39.50;24.60
70244;DHT22;57634;51.136;17.024;2023-08-12T06:37:10;40.20;23.90
70244;DHT22;57634;51.136;17.024;2023-08-12T06:40:12;41.20;23.10
70244;DHT22;57634;51.136;17.024;2023-08-12T06:43:14;41.60;22.20
70244;DHT22;57634;51.136;17.024;2023-08-12T06:46:15;41.60;22.10
70244;DHT22;57634;51.136;17.024;2023-08-12T06:49:17;41.90;22.10
70244;DHT22;57634;51.136;17.024;2023-08-12T06:52:18;42.50;21.60
70244;DHT22;57634;51.136;17.024;2023-08-12T06:55:20;43.40;21.20
70244;DHT22;57634;51.136;17.024;2023-08-12T06:58:24;43.80;20.60
70244;DHT22;57634;51.136;17.024;2023-08-12T07:01:26;44.30;20.40
70244;DHT22;57634;51.136;17.024;2023-08-12T07:04:27;44.50;20.00
70244;DHT22;57634;51.136;17.024;2023-08-12T07:07:29;44.40;20.30
70244;DHT22;57634;51.136;17.024;2023-08-12T07:10:33;44.20;19.70
70244;DHT22;57634;51.136;17.024;2023-08-12T07:13:34;43.00;20.20
70244;DHT22;57634;51.136;17.024;2023-08-12T07:17:04;42.20;20.70
70244;DHT22;57634;51.136;17.024;2023-08-12T07:20:07;41.60;21.00
70244;DHT22;57634;51.136;17.024;2023-08-12T07:23:08;41.00;21.50
70244;DHT22;57634;51.136;17.024;2023-08-12T07:26:11;40.50;22.10
70244;DHT22;57634;51.136;17.024;2023-08-12T07:29:12;40.20;22.30
70244;DHT22;57634;51.136;17.024;2023-08-12T07:32:13;39.80;22.80
70244;DHT22;57634;51.136;17.024;2023-08-12T07:35:15;39.70;22.80
70244;DHT22;57634;51.136;17.024;2023-08-12T07:38:17;39.20;23.20
70244;DHT22;57634;51.136;17.024;2023-08-12T07:41:18;39.30;23.40
70244;DHT22;57634;51.136;17.024;2023-08-12T07:44:20;40.00;23.20
70244;DHT22;57634;51.136;17.024;2023-08-12T07:47:21;40.60;22.50
70244;DHT22;57634;51.136;17.024;2023-08-12T07:50:23;40.90;22.40
70244;DHT22;57634;51.136;17.024;2023-08-12T07:53:25;40.60;22.00
70244;DHT22;57634;51.136;17.024;2023-08-12T07:56:27;40.60;22.50
70244;DHT22;57634;51.136;17.024;2023-08-12T07:59:54;40.70;22.40
70244;DHT22;57634;51.136;17.024;2023-08-12T08:02:56;41.10;22.10
70244;DHT22;57634;51.136;17.024;2023-08-12T08:05:57;41.30;21.90
70244;DHT22;57634;51.136;17.024;2023-08-12T08:08:58;41.20;21.70
70244;DHT22;57634;51.136;17.024;2023-08-12T08:12:06;41.10;21.90
70244;DHT22;57634;51.136;17.024;2023-08-12T08:15:08;41.10;22.00
70244;DHT22;57634;51.136;17.024;2023-08-12T08:18:10;40.90;21.90
70244;DHT22;57634;51.136;17.024;2023-08-12T08:21:12;40.40;22.30
70244;DHT22;57634;51.136;17.024;2023-08-12T08:24:19;39.90;22.70
70244;DHT22;57634;51.136;17.024;2023-08-12T08:27:21;39.70;23.10
70244;DHT22;57634;51.136;17.024;2023-08-12T08:30:22;39.60;23.20
70244;DHT22;57634;51.136;17.024;2023-08-12T08:33:53;39.50;23.50
70244;DHT22;57634;51.136;17.024;2023-08-12T08:36:54;39.10;23.40
70244;DHT22;57634;51.136;17.024;2023-08-12T08:39:56;39.10;23.90
70244;DHT22;57634;51.136;17.024;2023-08-12T08:43:04;39.50;23.70
70244;DHT22;57634;51.136;17.024;2023-08-12T08:46:08;40.10;23.30
70244;DHT22;57634;51.136;17.024;2023-08-12T08:49:10;40.30;22.90
70244;DHT22;57634;51.136;17.024;2023-08-12T08:52:13;40.20;23.00
70244;DHT22;57634;51.136;17.024;2023-08-12T08:55:15;40.50;22.90
70244;DHT22;57634;51.136;17.024;2023-08-12T08:58:18;40.90;22.60
70244;DHT22;57634;51.136;17.024;2023-08-12T09:01:23;41.50;22.20
70244;DHT22;57634;51.136;17.024;2023-08-12T09:04:26;41.60;22.00
70244;DHT22;57634;51.136;17.024;2023-08-12T09:07:54;41.90;21.90
70244;DHT22;57634;51.136;17.024;2023-08-12T09:10:57;41.80;21.20
70244;DHT22;57634;51.136;17.024;2023-08-12T09:13:59;41.20;21.40
70244;DHT22;57634;51.136;17.024;2023-08-12T09:17:01;40.80;21.80
70244;DHT22;57634;51.136;17.024;2023-08-12T09:20:04;40.60;21.80
70244;DHT22;57634;51.136;17.024;2023-08-12T09:23:16;40.00;21.80
70244;DHT22;57634;51.136;17.024;2023-08-12T09:26:20;39.40;22.50
70244;DHT22;57634;51.136;17.024;2023-08-12T09:29:31;39.40;22.80
70244;DHT22;57634;51.136;17.024;2023-08-12T09:33:03;39.90;22.70
70244;DHT22;57634;51.136;17.024;2023-08-12T09:36:08;40.20;22.20
70244;DHT22;57634;51.136;17.024;2023-08-12T09:39:09;40.00;22.00
70244;DHT22;57634;51.136;17.024;2023-08-12T09:42:13;39.30;22.60
70244;DHT22;57634;51.136;17.024;2023-08-12T09:45:14;38.70;23.20
70244;DHT22;57634;51.136;17.024;2023-08-12T09:48:17;37.70;23.90
70244;DHT22;57634;51.136;17.024;2023-08-12T09:51:21;36.80;24.80
70244;DHT22;57634;51.136;17.024;2023-08-12T09:54:26;35.90;25.60
70244;DHT22;57634;51.136;17.024;2023-08-12T09:57:31;35.10;26.10
70244;DHT22;57634;51.136;17.024;2023-08-12T10:00:35;34.50;26.90
70244;DHT22;57634;51.136;17.024;2023-08-12T10:03:37;34.20;27.30
70244;DHT22;57634;51.136;17.024;2023-08-12T10:07:05;33.60;27.70
70244;DHT22;57634;51.136;17.024;2023-08-12T10:10:06;32.90;28.70
70244;DHT22;57634;51.136;17.024;2023-08-12T10:13:11;32.30;29.60
70244;DHT22;57634;51.136;17.024;2023-08-12T10:16:14;31.90;30.00
70244;DHT22;57634;51.136;17.024;2023-08-12T10:19:16;31.60;30.70
70244;DHT22;57634;51.136;17.024;2023-08-12T10:22:19;31.20;31.00
70244;DHT22;57634;51.136;17.024;2023-08-12T10:25:20;31.00;31.60
70244;DHT22;57634;51.136;17.024;2023-08-12T10:28:25;30.70;32.10
70244;DHT22;57634;51.136;17.024;2023-08-12T10:31:29;30.50;32.50
70244;DHT22;57634;51.136;17.024;2023-08-12T10:34:32;30.30;32.90
70244;DHT22;57634;51.136;17.024;2023-08-12T10:38:05;30.00;33.40
70244;DHT22;57634;51.136;17.024;2023-08-12T10:41:17;30.00;34.00
70244;DHT22;57634;51.136;17.024;2023-08-12T10:44:20;30.30;33.70
70244;DHT22;57634;51.136;17.024;2023-08-12T10:47:24;30.40;33.30
70244;DHT22;57634;51.136;17.024;2023-08-12T10:50:26;30.60;32.90
70244;DHT22;57634;51.136;17.024;2023-08-12T10:53:29;30.80;32.60
70244;DHT22;57634;51.136;17.024;2023-08-12T11:00:19;30.80;32.40
70244;DHT22;57634;51.136;17.024;2023-08-12T11:03:24;30.80;32.90
70244;DHT22;57634;51.136;17.024;2023-08-12T11:06:27;30.80;32.70
70244;DHT22;57634;51.136;17.024;2023-08-12T11:09:29;30.70;32.80
70244;DHT22;57634;51.136;17.024;2023-08-12T11:12:32;30.60;32.70
70244;DHT22;57634;51.136;17.024;2023-08-12T11:15:38;30.50;33.00
70244;DHT22;57634;51.136;17.024;2023-08-12T11:18:42;30.60;33.00
70244;DHT22;57634;51.136;17.024;2023-08-12T11:21:44;30.70;32.80
70244;DHT22;57634;51.136;17.024;2023-08-12T11:24:46;30.70;33.00
70244;DHT22;57634;51.136;17.024;2023-08-12T11:27:48;30.60;32.90
70244;DHT22;57634;51.136;17.024;2023-08-12T11:31:16;30.60;33.10
70244;DHT22;57634;51.136;17.024;2023-08-12T11:34:17;30.50;33.30
70244;DHT22;57634;51.136;17.024;2023-08-12T11:37:19;30.40;33.50
70244;DHT22;57634;51.136;17.024;2023-08-12T11:40:21;30.40;33.80
70244;DHT22;57634;51.136;17.024;2023-08-12T11:43:23;30.50;33.60
70244;DHT22;57634;51.136;17.024;2023-08-12T11:46:25;30.40;33.70
70244;DHT22;57634;51.136;17.024;2023-08-12T11:49:27;30.40;33.80
70244;DHT22;57634;51.136;17.024;2023-08-12T11:52:28;30.30;33.70
70244;DHT22;57634;51.136;17.024;2023-08-12T11:55:30;30.30;34.00
70244;DHT22;57634;51.136;17.024;2023-08-12T11:58:37;30.30;34.10
70244;DHT22;57634;51.136;17.024;2023-08-12T12:01:39;30.30;33.90
70244;DHT22;57634;51.136;17.024;2023-08-12T12:04:41;30.10;34.10
70244;DHT22;57634;51.136;17.024;2023-08-12T12:08:09;30.00;34.20
70244;DHT22;57634;51.136;17.024;2023-08-12T12:11:11;29.80;34.70
70244;DHT22;57634;51.136;17.024;2023-08-12T12:14:12;29.80;34.80
70244;DHT22;57634;51.136;17.024;2023-08-12T12:17:14;29.90;34.90
70244;DHT22;57634;51.136;17.024;2023-08-12T12:20:17;30.00;35.10
70244;DHT22;57634;51.136;17.024;2023-08-12T12:23:18;30.00;35.10
70244;DHT22;57634;51.136;17.024;2023-08-12T12:26:19;30.10;35.00
70244;DHT22;57634;51.136;17.024;2023-08-12T12:29:21;30.20;34.90
70244;DHT22;57634;51.136;17.024;2023-08-12T12:32:22;30.30;34.80
70244;DHT22;57634;51.136;17.024;2023-08-12T12:35:29;30.30;34.80
70244;DHT22;57634;51.136;17.024;2023-08-12T12:38:33;30.40;34.50
70244;DHT22;57634;51.136;17.024;2023-08-12T12:41:37;30.30;34.20
70244;DHT22;57634;51.136;17.024;2023-08-12T12:45:07;30.30;34.30
70244;DHT22;57634;51.136;17.024;2023-08-12T12:48:09;30.30;34.20
70244;DHT22;57634;51.136;17.024;2023-08-12T12:51:12;30.30;34.30
70244;DHT22;57634;51.136;17.024;2023-08-12T12:54:14;30.30;34.30
70244;DHT22;57634;51.136;17.024;2023-08-12T12:57:16;30.30;34.40
70244;DHT22;57634;51.136;17.024;2023-08-12T13:00:20;30.30;34.50
70244;DHT22;57634;51.136;17.024;2023-08-12T13:03:22;30.30;34.50
70244;DHT22;57634;51.136;17.024;2023-08-12T13:06:24;30.40;34.40
70244;DHT22;57634;51.136;17.024;2023-08-12T13:09:27;30.30;34.30
70244;DHT22;57634;51.136;17.024;2023-08-12T13:12:32;30.30;34.30
70244;DHT22;57634;51.136;17.024;2023-08-12T13:15:33;30.30;34.50
70244;DHT22;57634;51.136;17.024;2023-08-12T13:19:02;30.30;34.70
70244;DHT22;57634;51.136;17.024;2023-08-12T13:22:04;30.30;34.70
70244;DHT22;57634;51.136;17.024;2023-08-12T13:25:05;30.30;34.70
70244;DHT22;57634;51.136;17.024;2023-08-12T13:28:07;30.30;34.90
70244;DHT22;57634;51.136;17.024;2023-08-12T13:31:09;30.30;35.10
70244;DHT22;57634;51.136;17.024;2023-08-12T13:34:10;30.30;34.90
70244;DHT22;57634;51.136;17.024;2023-08-12T13:37:17;30.30;34.90
70244;DHT22;57634;51.136;17.024;2023-08-12T13:40:20;30.20;35.00
70244;DHT22;57634;51.136;17.024;2023-08-12T13:43:22;30.20;35.20
70244;DHT22;57634;51.136;17.024;2023-08-12T13:46:27;30.10;35.10
70244;DHT22;57634;51.136;17.024;2023-08-12T13:49:30;30.00;35.30
70244;DHT22;57634;51.136;17.024;2023-08-12T13:53:00;30.00;35.40
70244;DHT22;57634;51.136;17.024;2023-08-12T13:56:01;30.00;35.90
70244;DHT22;57634;51.136;17.024;2023-08-12T13:59:03;29.90;35.90
70244;DHT22;57634;51.136;17.024;2023-08-12T14:02:05;30.00;35.70
70244;DHT22;57634;51.136;17.024;2023-08-12T14:05:07;29.90;35.80
70244;DHT22;57634;51.136;17.024;2023-08-12T14:08:10;30.00;36.20
70244;DHT22;57634;51.136;17.024;2023-08-12T14:11:14;30.00;36.10
70244;DHT22;57634;51.136;17.024;2023-08-12T14:14:16;30.00;36.00
70244;DHT22;57634;51.136;17.024;2023-08-12T14:17:20;30.00;35.80
70244;DHT22;57634;51.136;17.024;2023-08-12T14:20:24;30.00;35.80
70244;DHT22;57634;51.136;17.024;2023-08-12T14:23:27;30.00;35.80
70244;DHT22;57634;51.136;17.024;2023-08-12T14:26:56;30.00;35.90
70244;DHT22;57634;51.136;17.024;2023-08-12T14:29:57;30.00;36.10
70244;DHT22;57634;51.136;17.024;2023-08-12T14:32:59;30.00;36.20
70244;DHT22;57634;51.136;17.024;2023-08-12T14:36:00;30.10;36.20
70244;DHT22;57634;51.136;17.024;2023-08-12T14:39:02;30.10;36.10
70244;DHT22;57634;51.136;17.024;2023-08-12T14:42:04;30.10;35.90
70244;DHT22;57634;51.136;17.024;2023-08-12T14:45:06;30.10;36.10
70244;DHT22;57634;51.136;17.024;2023-08-12T14:48:08;30.10;35.90
70244;DHT22;57634;51.136;17.024;2023-08-12T14:51:09;30.10;35.90
70244;DHT22;57634;51.136;17.024;2023-08-12T14:54:10;30.20;36.20
70244;DHT22;57634;51.136;17.024;2023-08-12T14:57:12;30.20;36.20
70244;DHT22;57634;51.136;17.024;2023-08-12T15:00:17;30.10;36.20
70244;DHT22;57634;51.136;17.024;2023-08-12T15:03:18;30.10;36.40
70244;DHT22;57634;51.136;17.024;2023-08-12T15:06:46;30.10;36.10
70244;DHT22;57634;51.136;17.024;2023-08-12T15:09:47;30.10;36.10
70244;DHT22;57634;51.136;17.024;2023-08-12T15:12:49;30.10;36.10
70244;DHT22;57634;51.136;17.024;2023-08-12T15:15:51;30.10;36.20
70244;DHT22;57634;51.136;17.024;2023-08-12T15:18:53;30.10;36.20
70244;DHT22;57634;51.136;17.024;2023-08-12T15:21:55;30.10;36.20
70244;DHT22;57634;51.136;17.024;2023-08-12T15:24:56;30.10;36.10
70244;DHT22;57634;51.136;17.024;2023-08-12T15:27:58;30.10;36.10
70244;DHT22;57634;51.136;17.024;2023-08-12T15:30:59;30.20;36.20
70244;DHT22;57634;51.136;17.024;2023-08-12T15:34:01;30.20;36.50
70244;DHT22;57634;51.136;17.024;2023-08-12T15:37:04;30.20;36.70
70244;DHT22;57634;51.136;17.024;2023-08-12T15:40:07;30.20;36.60
70244;DHT22;57634;51.136;17.024;2023-08-12T15:43:10;30.20;36.60
70244;DHT22;57634;51.136;17.024;2023-08-12T15:46:39;30.10;36.60
70244;DHT22;57634;51.136;17.024;2023-08-12T15:49:46;30.10;36.70
70244;DHT22;57634;51.136;17.024;2023-08-12T15:52:47;30.10;36.50
70244;DHT22;57634;51.136;17.024;2023-08-12T15:55:48;30.10;36.70
70244;DHT22;57634;51.136;17.024;2023-08-12T15:58:50;30.10;36.90
70244;DHT22;57634;51.136;17.024;2023-08-12T16:01:52;30.10;37.10
70244;DHT22;57634;51.136;17.024;2023-08-12T16:04:57;30.10;37.00
70244;DHT22;57634;51.136;17.024;2023-08-12T16:07:59;30.10;37.10
70244;DHT22;57634;51.136;17.024;2023-08-12T16:11:00;30.00;37.00
70244;DHT22;57634;51.136;17.024;2023-08-12T16:14:01;30.00;37.20
70244;DHT22;57634;51.136;17.024;2023-08-12T16:17:05;30.00;37.20
70244;DHT22;57634;51.136;17.024;2023-08-12T16:20:35;30.00;37.40
70244;DHT22;57634;51.136;17.024;2023-08-12T16:23:37;30.00;37.40
70244;DHT22;57634;51.136;17.024;2023-08-12T16:26:39;29.90;37.50
70244;DHT22;57634;51.136;17.024;2023-08-12T16:29:40;29.90;37.60
70244;DHT22;57634;51.136;17.024;2023-08-12T16:32:42;29.90;37.70
70244;DHT22;57634;51.136;17.024;2023-08-12T16:35:43;29.80;37.80
70244;DHT22;57634;51.136;17.024;2023-08-12T16:38:48;29.80;38.00
70244;DHT22;57634;51.136;17.024;2023-08-12T16:41:49;29.70;38.00
70244;DHT22;57634;51.136;17.024;2023-08-12T16:44:51;29.70;38.10
70244;DHT22;57634;51.136;17.024;2023-08-12T16:47:53;29.70;38.50
70244;DHT22;57634;51.136;17.024;2023-08-12T16:50:55;29.60;38.50
70244;DHT22;57634;51.136;17.024;2023-08-12T16:56:19;29.50;38.60
70244;DHT22;57634;51.136;17.024;2023-08-12T16:59:20;29.50;38.60
70244;DHT22;57634;51.136;17.024;2023-08-12T17:02:22;29.40;38.40
70244;DHT22;57634;51.136;17.024;2023-08-12T17:05:24;29.40;38.40
70244;DHT22;57634;51.136;17.024;2023-08-12T17:08:25;29.40;38.40
70244;DHT22;57634;51.136;17.024;2023-08-12T17:11:26;29.30;38.50
70244;DHT22;57634;51.136;17.024;2023-08-12T17:14:28;29.30;38.40
70244;DHT22;57634;51.136;17.024;2023-08-12T17:17:31;29.30;38.60
70244;DHT22;57634;51.136;17.024;2023-08-12T17:20:32;29.30;38.70
70244;DHT22;57634;51.136;17.024;2023-08-12T17:23:33;29.20;38.60
70244;DHT22;57634;51.136;17.024;2023-08-12T17:26:35;29.10;38.70
70244;DHT22;57634;51.136;17.024;2023-08-12T17:29:37;29.10;38.80
70244;DHT22;57634;51.136;17.024;2023-08-12T17:32:38;29.10;38.90
70244;DHT22;57634;51.136;17.024;2023-08-12T17:36:06;29.00;39.00
70244;DHT22;57634;51.136;17.024;2023-08-12T17:39:07;29.00;39.40
70244;DHT22;57634;51.136;17.024;2023-08-12T17:42:12;28.90;39.60
70244;DHT22;57634;51.136;17.024;2023-08-12T17:45:14;28.90;39.80
70244;DHT22;57634;51.136;17.024;2023-08-12T17:48:18;28.80;40.00
70244;DHT22;57634;51.136;17.024;2023-08-12T17:51:19;28.80;40.20
70244;DHT22;57634;51.136;17.024;2023-08-12T17:54:20;28.70;40.30
70244;DHT22;57634;51.136;17.024;2023-08-12T17:57:22;28.60;40.40
70244;DHT22;57634;51.136;17.024;2023-08-12T18:00:24;28.60;40.60
70244;DHT22;57634;51.136;17.024;2023-08-12T18:03:26;28.60;40.70
70244;DHT22;57634;51.136;17.024;2023-08-12T18:06:27;28.50;40.90
70244;DHT22;57634;51.136;17.024;2023-08-12T18:09:29;28.50;41.00
70244;DHT22;57634;51.136;17.024;2023-08-12T18:12:30;28.50;41.20
70244;DHT22;57634;51.136;17.024;2023-08-12T18:15:59;28.40;41.20
70244;DHT22;57634;51.136;17.024;2023-08-12T18:19:01;28.40;41.50
70244;DHT22;57634;51.136;17.024;2023-08-12T18:22:02;28.30;41.60
70244;DHT22;57634;51.136;17.024;2023-08-12T18:25:04;28.30;41.80
70244;DHT22;57634;51.136;17.024;2023-08-12T18:28:05;28.30;42.00
70244;DHT22;57634;51.136;17.024;2023-08-12T18:31:08;28.20;42.10
70244;DHT22;57634;51.136;17.024;2023-08-12T18:34:10;28.20;42.30
70244;DHT22;57634;51.136;17.024;2023-08-12T18:37:12;28.10;42.40
70244;DHT22;57634;51.136;17.024;2023-08-12T18:40:14;28.10;42.50
70244;DHT22;57634;51.136;17.024;2023-08-12T18:43:17;28.00;42.50
70244;DHT22;57634;51.136;17.024;2023-08-12T18:46:18;28.00;42.80
70244;DHT22;57634;51.136;17.024;2023-08-12T18:49:19;28.00;42.90
70244;DHT22;57634;51.136;17.024;2023-08-12T18:52:20;27.90;42.90
70244;DHT22;57634;51.136;17.024;2023-08-12T18:55:49;27.90;42.90
70244;DHT22;57634;51.136;17.024;2023-08-12T18:58:50;27.90;43.20
70244;DHT22;57634;51.136;17.024;2023-08-12T19:01:55;27.80;43.20
70244;DHT22;57634;51.136;17.024;2023-08-12T19:04:58;27.80;43.30
70244;DHT22;57634;51.136;17.024;2023-08-12T19:07:59;27.80;43.30
70244;DHT22;57634;51.136;17.024;2023-08-12T19:11:03;27.80;43.30
70244;DHT22;57634;51.136;17.024;2023-08-12T19:14:05;27.70;43.30